Řízení letového provozu České republiky
Letiste: LKPD Aktualizace: 20.10.2018 23:01:06  UTC
 METAR LKPD 20.10. 23:00 ...
METAR LKPD 202300Z 00000KT CAVOK 07/02 Q1027 RMK BLACK=